Time;durP1;ratioP1;P1;durP2;ratioP2;P2;SDS_P1;SDS_P2;PMS_P1;PMS_P2;Temp;Humidity;BMP_temperature;BMP_pressure;BME280_temperature;BME280_humidity;BME280_pressure;Samples;Min_cycle;Max_cycle;Signal;HPM_P1;HPM_P2
2024/02/23 00:01:28;;;;;;;0.20;0.20;;;;;;;7.98;66.83;98740.88;5030052;28;20528;-76
2024/02/23 00:03:55;;;;;;;0.30;0.30;;;;;;;8.04;66.57;98742.41;5031890;28;20056;-77
2024/02/23 00:06:27;;;;;;;0.20;0.20;;;;;;;8.06;66.66;98751.94;5030004;28;20550;-76
2024/02/23 00:08:54;;;;;;;0.20;0.20;;;;;;;8.20;66.43;98756.63;5028859;28;20036;-76
2024/02/23 00:11:21;;;;;;;0.20;0.20;;;;;;;8.15;66.63;98749.81;5028869;28;20312;-76
2024/02/23 00:13:47;;;;;;;0.20;0.20;;;;;;;8.08;66.31;98760.63;5031320;28;20044;-76
2024/02/23 00:16:13;;;;;;;0.20;0.20;;;;;;;8.10;65.99;98769.34;5032179;28;20056;-78
2024/02/23 00:18:39;;;;;;;0.20;0.20;;;;;;;8.15;65.55;98749.81;5027042;28;20033;-76
2024/02/23 00:21:06;;;;;;;0.20;0.20;;;;;;;8.14;65.91;98767.44;5029711;28;20127;-77
2024/02/23 00:23:32;;;;;;;0.25;0.25;;;;;;;8.19;65.34;98757.53;5038017;28;20021;-77
2024/02/23 00:25:58;;;;;;;0.20;0.20;;;;;;;8.18;65.50;98771.66;5046172;28;20488;-77
2024/02/23 00:28:24;;;;;;;0.20;0.20;;;;;;;8.15;64.22;98779.72;5036668;28;20041;-77
2024/02/23 00:30:51;;;;;;;0.10;0.10;;;;;;;8.18;64.60;98765.53;5041486;28;20025;-77
2024/02/23 00:33:17;;;;;;;0.20;0.20;;;;;;;8.28;65.02;98785.31;5040414;28;20028;-77
2024/02/23 00:35:43;;;;;;;0.10;0.10;;;;;;;8.22;65.71;98786.44;5040203;28;20115;-77
2024/02/23 00:38:09;;;;;;;0.20;0.20;;;;;;;8.08;66.29;98831.00;5041470;28;20102;-76
2024/02/23 00:40:36;;;;;;;0.13;0.13;;;;;;;7.90;64.75;98829.97;5036652;28;20060;-77
2024/02/23 00:43:03;;;;;;;0.20;0.20;;;;;;;7.90;64.73;98814.16;5041074;28;20025;-77
2024/02/23 00:45:29;;;;;;;0.20;0.20;;;;;;;7.45;64.72;98808.94;5029572;28;20049;-76
2024/02/23 00:47:57;;;;;;;0.20;0.20;;;;;;;7.36;65.22;98797.91;5037090;28;20037;-76
2024/02/23 00:50:26;;;;;;;0.20;0.20;;;;;;;7.21;66.46;98815.16;5038556;28;20059;-76
2024/02/23 00:52:52;;;;;;;0.20;0.20;;;;;;;7.20;66.93;98818.72;5033657;28;20025;-77
2024/02/23 00:55:19;;;;;;;0.20;0.20;;;;;;;7.19;68.11;98824.91;5035711;28;20389;-76
2024/02/23 00:57:45;;;;;;;0.20;0.20;;;;;;;7.14;69.14;98814.56;5036299;28;20061;-76
2024/02/23 01:00:12;;;;;;;0.20;0.20;;;;;;;7.13;69.50;98829.47;5044533;28;20025;-77
2024/02/23 01:02:40;;;;;;;0.20;0.20;;;;;;;7.17;70.40;98832.88;5044632;28;20029;-77
2024/02/23 01:05:09;;;;;;;0.20;0.20;;;;;;;7.34;70.56;98842.75;5042386;28;20118;-76
2024/02/23 01:07:35;;;;;;;0.10;0.10;;;;;;;7.35;69.80;98839.22;5043870;28;20078;-77
2024/02/23 01:10:03;;;;;;;0.17;0.17;;;;;;;7.47;69.67;98851.03;5039885;28;20040;-77
2024/02/23 01:12:29;;;;;;;0.20;0.20;;;;;;;7.62;68.85;98852.19;5039485;28;20029;-76
2024/02/23 01:14:56;;;;;;;0.13;0.13;;;;;;;7.52;69.16;98856.97;5044592;28;20037;-77
2024/02/23 01:17:22;;;;;;;0.20;0.20;;;;;;;7.60;69.13;98875.09;5043344;28;20492;-77
2024/02/23 01:19:49;;;;;;;0.20;0.20;;;;;;;7.69;68.51;98869.50;5046186;28;20024;-77
2024/02/23 01:22:15;;;;;;;0.20;0.20;;;;;;;7.68;67.59;98882.75;5046007;28;20057;-77
2024/02/23 01:24:41;;;;;;;0.68;0.68;;;;;;;7.68;67.49;98875.69;5040271;28;20025;-77
2024/02/23 01:27:08;;;;;;;0.17;0.17;;;;;;;7.74;67.17;98878.06;5042434;28;20021;-76
2024/02/23 01:29:34;;;;;;;0.13;0.13;;;;;;;7.77;67.08;98861.28;5042532;28;20029;-77
2024/02/23 01:32:01;;;;;;;0.20;0.20;;;;;;;7.69;67.16;98874.75;5041697;28;20845;-77
2024/02/23 01:34:27;;;;;;;0.20;0.20;;;;;;;7.72;66.91;98879.91;5037323;28;20037;-77
2024/02/23 01:36:53;;;;;;;0.20;0.20;;;;;;;7.74;66.99;98875.44;5044918;28;20032;-77
2024/02/23 01:39:20;;;;;;;0.17;0.17;;;;;;;7.70;66.65;98870.34;5035550;28;20036;-77
2024/02/23 01:41:46;;;;;;;0.10;0.10;;;;;;;7.58;66.71;98874.34;5039145;28;20040;-77
2024/02/23 01:44:12;;;;;;;0.20;0.20;;;;;;;7.59;66.86;98883.97;5038737;28;20104;-77
2024/02/23 01:46:39;;;;;;;0.20;0.20;;;;;;;7.49;65.97;98888.72;5038913;28;20028;-76
2024/02/23 01:49:08;;;;;;;0.20;0.20;;;;;;;7.54;66.32;98883.25;5039486;28;20437;-76
2024/02/23 01:51:34;;;;;;;0.20;0.20;;;;;;;7.56;66.14;98889.34;5036586;28;20026;-76
2024/02/23 01:54:01;;;;;;;0.20;0.20;;;;;;;7.59;65.70;98895.34;5040559;28;20057;-76
2024/02/23 01:56:27;;;;;;;0.20;0.20;;;;;;;7.57;66.02;98888.44;5037189;28;20017;-76
2024/02/23 01:58:55;;;;;;;0.20;0.20;;;;;;;7.53;66.68;98889.47;5038277;28;20026;-76
2024/02/23 02:01:21;;;;;;;0.20;0.20;;;;;;;7.42;66.72;98882.81;5037323;28;20022;-76
2024/02/23 02:03:47;;;;;;;0.20;0.20;;;;;;;7.36;66.70;98885.69;5035474;28;20508;-77
2024/02/23 02:06:15;;;;;;;0.10;0.10;;;;;;;7.36;66.67;98879.56;5036997;28;20036;-76
2024/02/23 02:08:41;;;;;;;0.20;0.20;;;;;;;7.32;67.44;98886.72;5032648;28;20329;-78
2024/02/23 02:11:07;;;;;;;0.10;0.10;;;;;;;7.31;67.31;98884.16;5036006;28;20488;-76
2024/02/23 02:13:33;;;;;;;0.20;0.20;;;;;;;7.28;67.36;98885.16;5036097;28;20049;-76
2024/02/23 02:16:02;;;;;;;0.10;0.10;;;;;;;7.35;67.82;98894.53;5036253;28;20021;-76
2024/02/23 02:18:28;;;;;;;0.25;0.25;;;;;;;7.31;68.67;98900.81;5030701;28;20033;-75
2024/02/23 02:20:57;;;;;;;0.20;0.20;;;;;;;7.39;68.54;98903.16;5036690;28;20493;-75
2024/02/23 02:23:24;;;;;;;0.20;0.20;;;;;;;7.33;68.48;98903.38;5032462;28;20031;-75
2024/02/23 02:25:55;;;;;;;0.10;0.10;;;;;;;7.32;68.95;98906.97;5033338;28;20112;-76
2024/02/23 02:28:23;;;;;;;0.20;0.20;;;;;;;7.41;68.67;98891.66;5036587;28;20044;-76
2024/02/23 02:30:50;;;;;;;0.10;0.10;;;;;;;7.31;68.59;98906.09;5033085;28;20029;-77
2024/02/23 02:33:17;;;;;;;0.10;0.10;;;;;;;7.19;69.15;98906.53;5033848;28;20072;-76
2024/02/23 02:35:43;;;;;;;0.20;0.20;;;;;;;7.20;68.83;98903.88;5035355;28;20056;-76
2024/02/23 02:38:10;;;;;;;0.20;0.20;;;;;;;7.13;68.57;98895.31;5038198;28;20028;-76
2024/02/23 02:40:36;;;;;;;0.20;0.20;;;;;;;6.96;69.48;98908.25;5036434;28;20051;-77
2024/02/23 02:43:03;;;;;;;0.10;0.10;;;;;;;7.04;69.53;98898.31;5034709;28;20021;-77
2024/02/23 02:45:29;;;;;;;0.20;0.20;;;;;;;7.01;68.89;98908.94;5029796;28;20033;-77
2024/02/23 02:47:56;;;;;;;0.13;0.13;;;;;;;7.05;69.15;98902.66;5040133;28;20551;-77
2024/02/23 02:50:22;;;;;;;0.20;0.20;;;;;;;7.11;69.33;98904.19;5036211;28;20575;-76
2024/02/23 02:52:48;;;;;;;0.20;0.20;;;;;;;6.89;70.08;98902.38;5036656;28;20104;-77
2024/02/23 02:55:15;;;;;;;0.90;0.90;;;;;;;7.05;69.42;98907.94;5036500;28;20035;-77
2024/02/23 02:57:41;;;;;;;0.20;0.20;;;;;;;6.92;69.40;98919.81;5043660;28;20043;-76
2024/02/23 03:00:10;;;;;;;0.13;0.13;;;;;;;6.88;69.36;98905.03;5032067;28;20107;-76
2024/02/23 03:02:37;;;;;;;0.20;0.20;;;;;;;6.89;69.44;98915.53;5034712;28;20057;-77
2024/02/23 03:05:03;;;;;;;0.20;0.20;;;;;;;6.92;69.72;98911.94;5036603;28;20632;-76
2024/02/23 03:07:30;;;;;;;0.20;0.20;;;;;;;6.86;69.09;98904.25;5035683;28;20033;-76
2024/02/23 03:09:56;;;;;;;0.20;0.20;;;;;;;6.84;69.34;98913.97;5032224;28;20111;-76
2024/02/23 03:12:23;;;;;;;0.20;0.20;;;;;;;6.85;69.10;98918.31;5032855;28;20042;-75
2024/02/23 03:14:49;;;;;;;0.17;0.17;;;;;;;6.87;69.19;98916.50;5035492;28;20078;-76
2024/02/23 03:17:15;;;;;;;0.20;0.20;;;;;;;6.80;69.60;98927.25;5039304;28;20028;-76
2024/02/23 03:19:42;;;;;;;0.10;0.10;;;;;;;6.79;69.78;98919.38;5039134;28;20033;-77
2024/02/23 03:22:08;;;;;;;0.15;0.15;;;;;;;6.83;69.71;98930.66;5039206;28;20028;-76
2024/02/23 03:24:34;;;;;;;0.10;0.10;;;;;;;6.75;69.39;98933.56;5033898;28;20044;-76
2024/02/23 03:27:00;;;;;;;5.57;2.63;;;;;;;6.67;69.87;98947.00;5037682;28;20026;-76
2024/02/23 03:29:30;;;;;;;0.20;0.20;;;;;;;6.66;69.93;98953.19;5033104;28;20861;-76
2024/02/23 03:31:56;;;;;;;0.63;0.63;;;;;;;6.73;69.87;98945.91;5038281;28;20029;-77
2024/02/23 03:34:22;;;;;;;0.20;0.20;;;;;;;6.68;70.61;98943.47;5036881;28;20744;-76
2024/02/23 03:36:49;;;;;;;0.15;0.15;;;;;;;6.72;70.09;98936.31;5032573;28;20052;-76
2024/02/23 03:39:15;;;;;;;0.20;0.20;;;;;;;6.62;70.33;98941.03;5035204;28;20511;-76
2024/02/23 03:41:41;;;;;;;0.20;0.20;;;;;;;6.69;70.51;98941.69;5032305;28;20033;-76
2024/02/23 03:44:07;;;;;;;0.20;0.20;;;;;;;6.62;70.44;98944.53;5034442;28;20079;-76
2024/02/23 03:46:34;;;;;;;0.65;0.65;;;;;;;6.56;70.78;98944.72;5035415;28;20037;-77
2024/02/23 03:49:01;;;;;;;0.20;0.20;;;;;;;6.54;71.20;98943.06;5032950;28;20037;-77
2024/02/23 03:51:27;;;;;;;0.10;0.10;;;;;;;6.62;70.87;98954.19;5032432;28;20496;-77
2024/02/23 03:53:54;;;;;;;0.20;0.20;;;;;;;6.54;71.17;98945.69;5034766;28;20044;-77
2024/02/23 03:56:20;;;;;;;0.43;0.43;;;;;;;6.52;71.23;98942.25;5033852;28;20053;-77
2024/02/23 03:58:46;;;;;;;0.20;0.20;;;;;;;6.60;71.46;98945.50;5033786;28;20443;-76
2024/02/23 04:01:12;;;;;;;0.20;0.20;;;;;;;6.47;71.72;98948.53;5032241;28;20028;-76
2024/02/23 04:03:38;;;;;;;0.20;0.20;;;;;;;6.53;71.74;98942.22;5028137;28;20038;-77
2024/02/23 04:06:05;;;;;;;0.20;0.20;;;;;;;6.54;71.81;98945.69;5030128;28;20036;-76
2024/02/23 04:08:31;;;;;;;0.20;0.20;;;;;;;6.59;71.71;98944.66;5032789;28;20037;-76
2024/02/23 04:10:57;;;;;;;0.20;0.20;;;;;;;6.55;72.02;98936.91;5037868;28;20032;-77
2024/02/23 04:13:24;;;;;;;0.20;0.20;;;;;;;6.57;72.17;98948.25;5027541;28;20025;-75
2024/02/23 04:15:50;;;;;;;0.10;0.10;;;;;;;6.56;72.16;98951.78;5017172;28;20076;-75
2024/02/23 04:18:16;;;;;;;0.10;0.10;;;;;;;6.45;72.15;98963.50;5025062;28;20025;-75
2024/02/23 04:20:42;;;;;;;0.17;0.17;;;;;;;6.57;71.72;98956.13;5027152;28;20033;-75
2024/02/23 04:23:09;;;;;;;0.20;0.20;;;;;;;6.47;72.21;98948.53;5022414;28;20489;-75
2024/02/23 04:25:35;;;;;;;0.20;0.20;;;;;;;6.55;72.18;98950.06;5021389;28;20067;-75
2024/02/23 04:28:01;;;;;;;0.20;0.20;;;;;;;6.61;72.29;98957.75;5028095;28;20040;-75
2024/02/23 04:30:27;;;;;;;0.10;0.10;;;;;;;6.64;72.63;98961.13;5032380;28;20029;-75
2024/02/23 04:32:53;;;;;;;0.17;0.17;;;;;;;6.66;72.38;98961.06;5031020;28;20502;-75
2024/02/23 04:35:19;;;;;;;0.17;0.17;;;;;;;6.91;71.58;98954.97;5034093;28;20052;-76
2024/02/23 04:37:46;;;;;;;0.17;0.17;;;;;;;6.95;72.00;98961.81;5025127;28;20077;-76
2024/02/23 04:40:12;;;;;;;0.10;0.10;;;;;;;7.03;71.80;98961.53;5028026;28;20025;-76
2024/02/23 04:42:38;;;;;;;0.15;0.15;;;;;;;7.04;71.85;98966.78;5020024;28;20156;-76
2024/02/23 04:45:05;;;;;;;0.63;0.63;;;;;;;7.04;71.69;98956.25;5030831;28;20416;-75
2024/02/23 04:47:32;;;;;;;0.20;0.20;;;;;;;7.06;71.74;98964.09;5027573;28;20044;-76
2024/02/23 04:49:59;;;;;;;0.20;0.20;;;;;;;7.12;71.39;98971.75;5031624;28;20400;-75
2024/02/23 04:52:25;;;;;;;0.20;0.20;;;;;;;7.13;71.12;98955.91;5029724;28;20048;-75
2024/02/23 04:54:51;;;;;;;0.10;0.10;;;;;;;7.12;71.00;98969.97;5033485;28;20053;-75
2024/02/23 04:57:17;;;;;;;0.45;0.45;;;;;;;7.24;70.88;98963.41;5018706;28;20405;-76
2024/02/23 04:59:43;;;;;;;1.75;1.65;;;;;;;7.21;70.95;98965.31;5026829;28;20165;-75
2024/02/23 05:02:10;;;;;;;0.20;0.20;;;;;;;7.22;70.90;98965.25;5028128;28;20041;-76
2024/02/23 05:04:36;;;;;;;0.10;0.10;;;;;;;7.17;70.38;98972.44;5032065;28;20104;-77
2024/02/23 05:07:02;;;;;;;0.10;0.10;;;;;;;7.22;70.29;98981.03;5024119;28;20048;-77
2024/02/23 05:09:29;;;;;;;0.20;0.20;;;;;;;7.27;70.57;98960.66;5030954;28;20050;-77
2024/02/23 05:11:55;;;;;;;0.20;0.20;;;;;;;7.38;70.29;98964.69;5034820;28;20550;-77
2024/02/23 05:14:21;;;;;;;0.20;0.20;;;;;;;7.30;70.33;98962.31;5027067;28;20059;-76
2024/02/23 05:16:47;;;;;;;0.20;0.20;;;;;;;7.38;69.89;98964.69;5017779;28;20018;-77
2024/02/23 05:19:13;;;;;;;0.10;0.10;;;;;;;7.39;69.94;98956.72;5022275;28;20042;-77
2024/02/23 05:21:39;;;;;;;0.20;0.20;;;;;;;7.47;70.30;98960.84;5021924;28;20026;-77
2024/02/23 05:24:06;;;;;;;0.15;0.15;;;;;;;7.49;69.69;98953.72;5022517;28;20029;-77
2024/02/23 05:26:32;;;;;;;0.20;0.20;;;;;;;7.31;69.85;98953.50;5026990;28;20026;-76
2024/02/23 05:28:58;;;;;;;0.20;0.20;;;;;;;7.34;69.56;98953.41;5029046;28;20029;-77
2024/02/23 05:31:46;;;;;;;0.20;0.20;;;;;;;7.45;69.40;98951.22;5024177;28;20037;-77
2024/02/23 05:34:13;;;;;;;0.10;0.10;;;;;;;7.41;69.23;98939.09;5032041;28;20508;-77
2024/02/23 05:36:40;;;;;;;0.15;0.15;;;;;;;7.42;69.14;98940.78;5025766;28;20033;-77
2024/02/23 05:39:07;;;;;;;0.10;0.10;;;;;;;7.41;69.34;98938.22;5032929;28;20056;-77
2024/02/23 05:41:33;;;;;;;0.32;0.32;;;;;;;7.32;68.84;98944.69;5029295;28;20095;-77
2024/02/23 05:44:00;;;;;;;0.20;0.20;;;;;;;7.39;68.60;98935.66;5024172;28;20524;-77
2024/02/23 05:46:26;;;;;;;0.20;0.20;;;;;;;7.36;68.70;98933.13;5028200;28;20493;-77
2024/02/23 05:48:52;;;;;;;0.20;0.20;;;;;;;7.29;68.69;98940.41;5023110;28;20148;-77
2024/02/23 05:51:19;;;;;;;0.30;0.30;;;;;;;7.41;68.86;98936.47;5028010;28;20036;-77
2024/02/23 05:53:45;;;;;;;0.85;0.85;;;;;;;7.29;69.25;98950.09;5021701;28;20031;-77
2024/02/23 05:56:11;;;;;;;0.10;0.10;;;;;;;7.38;69.35;98938.34;5029230;28;20014;-77
2024/02/23 05:58:38;;;;;;;0.13;0.13;;;;;;;7.42;68.57;98950.47;5024248;28;20104;-76
2024/02/23 06:01:05;;;;;;;0.20;0.20;;;;;;;7.49;68.60;98936.16;5021753;28;20057;-77
2024/02/23 06:03:31;;;;;;;0.30;0.30;;;;;;;7.47;69.01;98945.03;5024365;28;20649;-77
2024/02/23 06:05:57;;;;;;;0.20;0.20;;;;;;;7.30;68.68;98943.88;5018601;28;20026;-77
2024/02/23 06:08:23;;;;;;;0.20;0.20;;;;;;;7.28;68.96;98948.38;5020551;28;20048;-77
2024/02/23 06:10:49;;;;;;;0.10;0.10;;;;;;;7.33;68.81;98951.69;5035206;28;20458;-78
2024/02/23 06:13:16;;;;;;;0.17;0.17;;;;;;;7.42;68.52;98950.47;5030074;28;20148;-77
2024/02/23 06:15:42;;;;;;;0.17;0.17;;;;;;;7.49;68.28;98946.69;5028784;28;20037;-77
2024/02/23 06:18:08;;;;;;;0.98;0.98;;;;;;;7.51;67.79;98944.00;5032201;28;20071;-77
2024/02/23 06:20:34;;;;;;;0.20;0.20;;;;;;;7.55;67.35;98945.59;5028611;28;20025;-77
2024/02/23 06:23:01;;;;;;;0.10;0.10;;;;;;;7.33;68.10;98949.06;5029439;28;20389;-77
2024/02/23 06:25:27;;;;;;;0.20;0.20;;;;;;;7.50;67.74;98958.09;5021856;28;20043;-77
2024/02/23 06:27:53;;;;;;;0.32;0.32;;;;;;;7.52;67.04;98956.25;5028188;28;20121;-77
2024/02/23 06:30:20;;;;;;;0.10;0.10;;;;;;;7.57;67.51;98957.78;5029749;28;20057;-78
2024/02/23 06:32:46;;;;;;;0.20;0.20;;;;;;;7.56;67.14;98952.59;5026926;28;20029;-77
2024/02/23 06:35:13;;;;;;;0.20;0.20;;;;;;;7.48;67.27;98958.16;5032359;28;20057;-78
2024/02/23 06:37:40;;;;;;;0.20;0.20;;;;;;;7.41;67.67;98944.38;5033007;28;20036;-77
2024/02/23 06:40:07;;;;;;;0.50;0.50;;;;;;;7.54;67.22;98952.66;5030298;28;20485;-77
2024/02/23 06:42:33;;;;;;;0.20;0.20;;;;;;;7.49;66.70;98943.19;5033412;28;20037;-78
2024/02/23 06:44:59;;;;;;;0.20;0.20;;;;;;;7.44;66.28;98944.22;5028964;28;20099;-77
2024/02/23 06:47:26;;;;;;;0.10;0.10;;;;;;;7.45;65.98;98945.97;5033406;28;20520;-79
2024/02/23 06:49:52;;;;;;;0.10;0.10;;;;;;;7.63;66.29;98956.72;5023382;28;20036;-78
2024/02/23 06:52:18;;;;;;;0.10;0.10;;;;;;;7.64;65.69;98945.25;5030726;28;20025;-78
2024/02/23 06:54:45;;;;;;;0.40;0.40;;;;;;;7.65;66.59;98956.66;5024307;28;20084;-78
2024/02/23 06:57:11;;;;;;;0.20;0.20;;;;;;;7.66;66.57;98964.50;5026232;28;20018;-79
2024/02/23 06:59:37;;;;;;;0.10;0.10;;;;;;;7.68;66.36;98956.53;5018102;28;20083;-77
2024/02/23 07:02:04;;;;;;;0.30;0.30;;;;;;;7.67;66.52;98960.94;5029986;28;20445;-77
2024/02/23 07:04:30;;;;;;;0.20;0.20;;;;;;;7.61;66.53;98951.50;5019332;28;20593;-76
2024/02/23 07:06:56;;;;;;;0.17;0.17;;;;;;;7.56;65.98;98960.50;5025589;28;20045;-77
2024/02/23 07:09:23;;;;;;;0.17;0.17;;;;;;;7.62;65.91;98955.00;5028249;28;20029;-77
2024/02/23 07:11:49;;;;;;;0.10;0.10;;;;;;;7.65;65.70;98962.78;5024045;28;20041;-77
2024/02/23 07:14:16;;;;;;;0.10;0.10;;;;;;;7.53;65.69;98956.19;5026099;28;20116;-78
2024/02/23 07:16:43;;;;;;;0.10;0.10;;;;;;;7.63;65.57;98958.47;5025317;28;20061;-77
2024/02/23 07:19:09;;;;;;;0.20;0.20;;;;;;;7.72;65.61;98960.78;5022627;28;20026;-75
2024/02/23 07:21:35;;;;;;;0.20;0.20;;;;;;;7.74;66.37;98957.16;5033924;28;20029;-78
2024/02/23 07:24:02;;;;;;;0.20;0.20;;;;;;;7.79;65.89;98954.34;5030065;28;20025;-77
2024/02/23 07:26:29;;;;;;;0.13;0.13;;;;;;;7.74;65.66;98957.16;5030048;28;20060;-77
2024/02/23 07:28:57;;;;;;;0.20;0.20;;;;;;;7.69;65.99;98953.84;5022597;28;20049;-77
2024/02/23 07:31:23;;;;;;;0.15;0.15;;;;;;;7.82;65.24;98956.84;5023421;28;20100;-77
2024/02/23 07:33:49;;;;;;;0.20;0.20;;;;;;;7.78;65.38;98948.19;5028056;28;20022;-77
2024/02/23 07:36:16;;;;;;;0.10;0.10;;;;;;;7.73;65.56;98934.34;5027969;28;20112;-77
2024/02/23 07:38:43;;;;;;;0.10;0.10;;;;;;;7.77;66.45;98943.84;5025382;28;20061;-77
2024/02/23 07:41:10;;;;;;;1.90;1.83;;;;;;;7.82;66.42;98932.28;5030886;28;20117;-77
2024/02/23 07:43:36;;;;;;;10.15;5.30;;;;;;;7.84;66.72;98940.97;5017638;28;20033;-77
2024/02/23 07:46:04;;;;;;;0.20;0.20;;;;;;;7.58;66.55;98934.94;5019361;28;20053;-77
2024/02/23 07:48:31;;;;;;;0.20;0.20;;;;;;;7.69;66.87;98923.97;5025176;28;20137;-77
2024/02/23 07:50:57;;;;;;;0.43;0.43;;;;;;;7.61;67.40;98932.19;5021561;28;20025;-77
2024/02/23 07:53:23;;;;;;;0.10;0.10;;;;;;;7.66;67.61;98922.31;5024309;28;20025;-77
2024/02/23 07:55:49;;;;;;;0.10;0.10;;;;;;;7.63;68.29;98933.00;5025288;28;20030;-77
2024/02/23 07:58:15;;;;;;;0.17;0.17;;;;;;;7.32;68.56;98923.63;5030365;28;20112;-77
2024/02/23 08:00:41;;;;;;;0.10;0.10;;;;;;;7.29;70.02;98923.75;5017506;28;20033;-77
2024/02/23 08:03:08;;;;;;;0.10;0.10;;;;;;;7.28;70.29;98920.22;5026192;28;20048;-77
2024/02/23 08:05:34;;;;;;;0.10;0.10;;;;;;;7.18;70.61;98925.88;5025183;28;20018;-77
2024/02/23 08:08:01;;;;;;;0.10;0.10;;;;;;;7.00;70.86;98912.50;5023146;28;20095;-77
2024/02/23 08:10:27;;;;;;;1.10;1.10;;;;;;;7.19;71.09;98922.34;5026169;28;20029;-77
2024/02/23 08:12:53;;;;;;;0.10;0.10;;;;;;;7.19;70.95;98917.97;5028383;28;20057;-77
2024/02/23 08:15:19;;;;;;;0.20;0.20;;;;;;;7.01;71.54;98922.09;5025449;28;20029;-77
2024/02/23 08:17:46;;;;;;;0.30;0.30;;;;;;;7.12;71.71;98916.47;5031584;28;20400;-77
2024/02/23 08:20:12;;;;;;;0.10;0.10;;;;;;;7.21;71.80;98917.91;5031498;28;20025;-77
2024/02/23 08:22:38;;;;;;;0.20;0.20;;;;;;;7.27;71.12;98926.41;5028295;28;20076;-78
2024/02/23 08:25:05;;;;;;;0.38;0.38;;;;;;;7.28;71.54;98928.13;5034107;28;20480;-77
2024/02/23 08:27:31;;;;;;;3.88;1.75;;;;;;;7.24;71.73;98928.31;5031952;28;20033;-78
2024/02/23 08:29:57;;;;;;;0.20;0.20;;;;;;;7.13;71.42;98919.03;5030578;28;20034;-77
2024/02/23 08:32:23;;;;;;;0.20;0.20;;;;;;;7.27;71.72;98920.31;5036192;28;20021;-77
2024/02/23 08:34:50;;;;;;;0.20;0.20;;;;;;;7.28;71.96;98936.03;5022889;28;20030;-78
2024/02/23 08:37:16;;;;;;;0.15;0.15;;;;;;;7.32;71.43;98930.69;5034246;28;20029;-77
2024/02/23 08:39:42;;;;;;;0.10;0.10;;;;;;;7.39;71.64;98919.84;5035453;28;20025;-78
2024/02/23 08:42:08;;;;;;;0.30;0.30;;;;;;;7.42;71.92;98922.34;5031713;28;20026;-78
2024/02/23 08:44:35;;;;;;;0.20;0.20;;;;;;;7.32;72.24;98928.88;5031977;28;20083;-77
2024/02/23 08:47:01;;;;;;;0.10;0.10;;;;;;;7.32;71.71;98936.78;5024356;28;20018;-77
2024/02/23 08:49:28;;;;;;;0.20;0.20;;;;;;;7.38;71.52;98933.94;5029733;28;20046;-81
2024/02/23 08:51:54;;;;;;;0.20;0.20;;;;;;;7.35;71.84;98933.19;5028366;28;20107;-76
2024/02/23 08:54:20;;;;;;;0.20;0.20;;;;;;;7.22;72.19;98922.25;5032902;28;20022;-77
2024/02/23 08:56:46;;;;;;;0.15;0.15;;;;;;;7.16;72.79;98911.94;5030902;28;20025;-77
2024/02/23 08:59:12;;;;;;;0.20;0.20;;;;;;;7.21;72.69;98936.34;5030207;28;20083;-75
2024/02/23 09:01:38;;;;;;;0.10;0.10;;;;;;;7.31;72.85;98923.69;5027865;28;20460;-76
2024/02/23 09:04:05;;;;;;;0.15;0.15;;;;;;;7.23;72.81;98926.59;5027357;28;20481;-76
2024/02/23 09:06:32;;;;;;;0.20;0.20;;;;;;;7.33;73.06;98919.19;5021413;28;20693;-77
2024/02/23 09:08:59;;;;;;;0.10;0.10;;;;;;;7.44;72.79;98917.88;5032906;28;20034;-78
2024/02/23 09:11:25;;;;;;;0.20;0.20;;;;;;;7.47;72.37;98911.63;5022666;28;20026;-77
2024/02/23 09:13:51;;;;;;;0.20;0.20;;;;;;;7.47;72.62;98916.06;5025007;28;20029;-76
2024/02/23 09:16:18;;;;;;;0.20;0.20;;;;;;;7.44;71.53;98920.53;5015720;28;20036;-77
2024/02/23 09:18:45;;;;;;;0.20;0.20;;;;;;;7.51;72.29;98917.66;5031538;28;20591;-76
2024/02/23 09:21:11;;;;;;;0.20;0.20;;;;;;;7.54;72.19;98917.53;5026636;28;20045;-77
2024/02/23 09:23:37;;;;;;;0.17;0.17;;;;;;;7.73;71.69;98921.16;5030614;28;20519;-77
2024/02/23 09:26:10;;;;;;;0.20;0.20;;;;;;;7.69;70.89;98905.53;5042235;28;20091;-76
2024/02/23 09:28:37;;;;;;;0.20;0.20;;;;;;;7.88;71.47;98930.25;5034642;28;20116;-76
2024/02/23 09:31:04;;;;;;;0.17;0.17;;;;;;;7.94;71.71;98918.59;5034363;28;20037;-77
2024/02/23 09:33:30;;;;;;;0.20;0.20;;;;;;;8.03;70.85;98926.13;5043943;28;20025;-77
2024/02/23 09:35:58;;;;;;;0.20;0.20;;;;;;;7.97;70.50;98915.00;5042902;28;20017;-77
2024/02/23 09:38:25;;;;;;;0.17;0.17;;;;;;;7.98;69.93;98928.09;5039713;28;20029;-77
2024/02/23 09:40:51;;;;;;;0.20;0.20;;;;;;;7.82;70.56;98932.28;5043564;28;20091;-77
2024/02/23 09:43:20;;;;;;;0.13;0.13;;;;;;;7.99;69.83;98931.59;5039986;28;20065;-76
2024/02/23 09:45:50;;;;;;;0.15;0.15;;;;;;;7.82;70.58;98927.84;5043427;28;20025;-77
2024/02/23 09:48:18;;;;;;;0.10;0.10;;;;;;;7.93;69.99;98946.75;5037777;28;20147;-78
2024/02/23 09:50:46;;;;;;;0.10;0.10;;;;;;;8.01;69.74;98938.53;5030417;28;20021;-75
2024/02/23 09:53:13;;;;;;;0.10;0.10;;;;;;;8.17;70.23;98937.91;5026027;28;20108;-77
2024/02/23 09:55:40;;;;;;;0.20;0.20;;;;;;;8.09;69.71;98959.34;5036739;28;20021;-77
2024/02/23 09:58:08;;;;;;;0.10;0.10;;;;;;;8.33;69.86;98954.81;5032035;28;20285;-77
2024/02/23 10:00:36;;;;;;;1.58;1.55;;;;;;;8.26;69.55;98967.41;5031565;28;20047;-77
2024/02/23 10:03:04;;;;;;;0.13;0.13;;;;;;;8.39;69.11;98946.66;5033786;28;20033;-77
2024/02/23 10:05:32;;;;;;;0.30;0.30;;;;;;;8.28;68.96;98967.34;5040670;28;20048;-76
2024/02/23 10:07:58;;;;;;;0.20;0.20;;;;;;;8.22;69.20;98957.03;5042769;28;20048;-77
2024/02/23 10:10:32;;;;;;;0.20;0.20;;;;;;;8.31;69.62;98972.53;5042345;28;20087;-77
2024/02/23 10:12:59;;;;;;;0.13;0.13;;;;;;;8.37;69.39;98956.44;5042713;28;20017;-76
2024/02/23 10:15:26;;;;;;;0.20;0.20;;;;;;;8.29;69.23;98962.91;5040185;28;20392;-76
2024/02/23 10:17:54;;;;;;;0.10;0.10;;;;;;;8.32;69.39;98973.38;5038841;28;20056;-77
2024/02/23 10:20:20;;;;;;;0.10;0.10;;;;;;;8.41;68.87;98979.13;5027669;28;20412;-76
2024/02/23 10:22:46;;;;;;;0.20;0.20;;;;;;;8.37;68.88;98969.63;5033168;28;20034;-77
2024/02/23 10:25:14;;;;;;;0.10;0.10;;;;;;;8.51;69.51;98981.41;5042354;28;20017;-77
2024/02/23 10:27:42;;;;;;;0.10;0.10;;;;;;;8.55;69.50;98975.09;5037582;28;20119;-77
2024/02/23 10:30:11;;;;;;;0.20;0.20;;;;;;;8.65;68.80;98973.78;5035650;28;20409;-78
2024/02/23 10:32:40;;;;;;;0.15;0.15;;;;;;;8.80;68.57;98980.19;5041382;28;20108;-78
2024/02/23 10:35:13;;;;;;;0.10;0.10;;;;;;;8.85;68.38;98998.50;5042235;28;20021;-77
2024/02/23 10:37:41;;;;;;;0.10;0.10;;;;;;;8.96;67.73;98983.03;5045085;28;20036;-78
2024/02/23 10:40:12;;;;;;;0.15;0.15;;;;;;;8.93;67.39;98988.44;5043979;28;20029;-77
2024/02/23 10:42:40;;;;;;;0.10;0.10;;;;;;;9.16;66.67;98976.00;5044470;28;20485;-78
2024/02/23 10:45:08;;;;;;;0.20;0.20;;;;;;;9.04;66.61;98972.97;5043805;28;20025;-78
2024/02/23 10:47:36;;;;;;;0.20;0.20;;;;;;;8.94;66.33;98994.59;5043667;28;20040;-77
2024/02/23 10:50:04;;;;;;;0.10;0.10;;;;;;;9.04;65.89;99002.03;5045011;28;20037;-78
2024/02/23 10:52:32;;;;;;;0.20;0.20;;;;;;;9.34;66.08;98988.41;5045674;28;20033;-78
2024/02/23 10:55:00;;;;;;;0.40;0.40;;;;;;;9.37;65.64;98993.56;5044712;28;20053;-78
2024/02/23 10:57:27;;;;;;;0.20;0.20;;;;;;;9.40;65.79;98995.22;5040280;28;20079;-77
2024/02/23 10:59:54;;;;;;;0.20;0.20;;;;;;;9.44;65.70;99002.06;5040697;28;20025;-78
2024/02/23 11:02:23;;;;;;;0.52;0.52;;;;;;;9.60;65.40;99011.97;5040932;28;20025;-77
2024/02/23 11:04:50;;;;;;;0.10;0.10;;;;;;;9.55;64.64;98993.66;5043761;28;20032;-78
2024/02/23 11:07:19;;;;;;;0.20;0.20;;;;;;;9.74;64.24;98992.81;5041306;28;20107;-78
2024/02/23 11:09:51;;;;;;;2.20;2.10;;;;;;;9.68;64.15;98994.81;5040796;28;20052;-77
2024/02/23 11:12:35;;;;;;;0.20;0.20;;;;;;;9.54;63.67;98994.59;5040378;28;20108;-77
2024/02/23 11:15:01;;;;;;;0.10;0.10;;;;;;;9.48;64.04;98992.22;5037776;28;20029;-77
2024/02/23 11:17:30;;;;;;;0.20;0.20;;;;;;;9.35;64.31;98982.19;5041965;28;20040;-77
2024/02/23 11:19:57;;;;;;;0.10;0.10;;;;;;;9.39;63.25;98989.09;5044820;28;20050;-77
2024/02/23 11:22:26;;;;;;;0.17;0.17;;;;;;;9.49;63.72;98999.22;5046521;28;20033;-78
2024/02/23 11:24:52;;;;;;;0.10;0.10;;;;;;;9.56;63.85;99016.53;5044390;28;20072;-78
2024/02/23 11:27:19;;;;;;;0.10;0.10;;;;;;;9.75;63.85;98995.38;5042749;28;20484;-78
2024/02/23 11:29:58;;;;;;;0.10;0.10;;;;;;;9.78;63.29;99007.59;5042153;28;20033;-77
2024/02/23 11:32:44;;;;;;;0.20;0.20;;;;;;;9.91;62.51;99008.75;5039547;28;20028;-78
2024/02/23 11:35:12;;;;;;;0.10;0.10;;;;;;;9.84;62.84;99031.13;5040418;28;20021;-77
2024/02/23 11:37:59;;;;;;;0.20;0.20;;;;;;;9.75;62.57;99005.13;5037629;28;20081;-77
2024/02/23 11:40:28;;;;;;;0.15;0.15;;;;;;;9.88;62.69;99011.53;5032505;28;20093;-77